Hinesburg, VT (05461)

8:44 PM EST on March 02, 2015 (GMT -0500)
KVTHINES4 | Change Station
CLOSE
Current Station
Personal Weather Station
Location: Hinesburg, VT
Elevation: 344 ft
Nearby Weather Stations

Elev 344 ft 44.33 °N, 73.11 °W | Updated 41 seconds ago

Partly Cloudy
Partly Cloudy
21.4 °F
Feels Like 15 °F
N
4.5
Wind Variable Wind from NW
Gusts 8.3 mph

Today
High -- | Low -- °F
--% Chance of Precip.
Yesterday
High -- | Low -- °F
Precip. -- in
6:28 AM 5:41 PM
Waxing Gibbous, 94% visible
Pressure 30.27 in
Visibility 10.0 miles
Clouds Scattered Clouds 5000 ft
Scattered Clouds 6000 ft
Windchill 15 °F
Dew Point 3 °F
Humidity 45%
Rainfall 0.03 in
Snow Depth Not available.
UV 0 out of 12
Pollen .40 out of 12
Air Quality Not available.
Flu Activity Not available.
METAR KBTV 030054Z 31009KT 10SM SCT050 SCT060 M06/M13 A3026 RMK AO2 SLP251 T10561133

More Conditions Fewer Conditions

Pressure 30.27 in
Visibility 10.0 miles
Clouds Scattered Clouds 5000 ft
Scattered Clouds 6000 ft
Windchill 15 °F
Dew Point 3 °F
Humidity 45%
Rainfall 0.03 in
Snow Depth Not available.
UV 0 out of 12
Pollen .40 out of 12
Air Quality Not available.
Flu Activity Not available.
METAR KBTV 030054Z 31009KT 10SM SCT050 SCT060 M06/M13 A3026 RMK AO2 SLP251 T10561133

More Conditions Fewer Conditions

10-Day Weather Forecast

Almanac

Astronomy

Mar. 02, 2015 Rise Set
Actual Time
Civil Twilight
Nautical Twilight
Astronomical Twilight
Moon
Length of Visible Light
Length of Day
Tomorrow will be .
, % of the Moon is Illuminated

Today's Extremes

State Highs State Lows

Community

WunderPhotos

Upload Photos

1,802,034 photos uploaded!

WunderBlogs® & News

Nearby

Air Quality

  Air Quality AQ Index Pollutant
Not available.

Snow Depth

Station Depth Elevation

Earthquake Activity

City Distance Mag. Time & Date
Minimum magnitude displayed is 2.5.

Coastal Water Temperatures

Place Temperature

Nearby Weather Stations